Meeker, CO

6:02 AM MDT on July 30, 2014 (GMT -0600)
Meeker (KEEO) Elev 6421 ft | 40.05 °N, 107.89 °W | Change Station

Current weather conditions updated 9 minutes ago

Scattered Clouds
Scattered Clouds
52 °F
Feels Like 52 °F
N
4
Wind Variable Wind from NNE

Today is forecast to be nearly the same temperature as yesterday. Scattered thunderstorms.

Today
High -- | Low -- °F
--% Chance of Precip.
Yesterday
High -- | Low -- °F
Precip. -- in
6:08 AM 8:27 PM
Waxing Crescent, 11% visible
Pressure 30.10 in
Visibility 10.0 miles
Clouds Few 700 ft
Scattered Clouds 10000 ft
Dew Point 50 °F
Humidity 93%
Rainfall 0.00 in
Snow Depth Not available.
UV 0 out of 12
Pollen 5.20 out of 12
Air Quality Not available.
Flu Activity Not available.
METAR KEEO 301153Z AUTO 03003KT 10SM FEW007 SCT100 11/10 A3031 RMK AO2 SLP191 70026 T01110100 10133 20106 53003

More Conditions Fewer Conditions

Pressure 30.10 in
Visibility 10.0 miles
Clouds Few 700 ft
Scattered Clouds 10000 ft
Dew Point 50 °F
Humidity 93%
Rainfall 0.00 in
Snow Depth Not available.
UV 0 out of 12
Pollen 5.20 out of 12
Air Quality Not available.
Flu Activity Not available.
METAR KEEO 301153Z AUTO 03003KT 10SM FEW007 SCT100 11/10 A3031 RMK AO2 SLP191 70026 T01110100 10133 20106 53003

More Conditions Fewer Conditions

10-Day Weather Forecast

Almanac

Astronomy

Jul. 30, 2014 Rise Set
Actual Time 6:08 AM MDT 8:27 PM MDT
Civil Twilight 5:37 AM MDT 8:57 PM MDT
Nautical Twilight 5:00 AM MDT 9:35 PM MDT
Astronomical Twilight 4:18 AM MDT 10:16 PM MDT
Moon 9:42 AM MDT 10:11 PM MDT
Length of Visible Light 15h 20m
Length of Day
14h 19m
Tomorrow will be 1m 56s shorter.
Waxing Crescent, 11% of the Moon is Illuminated
Today
Waxing Crescent
Aug 3
First Quarter
Aug 10
Full
Aug 17
Last Quarter
Aug 25
New

Today's Extremes

State Highs State Lows

Community

WunderPhotos

Upload Photos

1,739,047 photos uploaded!

Nearby

Snow Depth

Station Depth Elevation
Burro Mountain 5 in 9400 ft
Ripple Creek 0 in 10340 ft
Bison Lake 0 in 10880 ft
Trapper Lake 1 in 9700 ft
Crosho 0 in 9100 ft

Earthquake Activity

City Distance Mag. Time & Date
No recent earthquake activity has been reported nearby.
Minimum magnitude displayed is 2.5.

Coastal Water Temperatures

Place Temperature
No Stations Reporting

Nearby Weather Stations

Station Location Temp. Windchill Dew Point Humidity Wind Precip. Elev Updated Type
RAWS CRDBLMFTS CO, Hamilton, CO 51 °F - 49 °F 93% ESE  at  2 mph 0.00 in / hr 7633 ft 4:42 AM MDT MADIS
RAWS PINTO CO, Dinosaur, CO 52 °F - 51 °F 97% North  at  0 mph 0.00 in / hr 6671 ft 5:23 AM MDT MADIS
RAWS DEEP CREEK CO, New Castle, CO 47 °F 47 °F 46 °F 96% NE  at  2 mph 0.00 in / hr 9403 ft 4:55 AM MDT MADIS

Show More Stations Show Fewer Stations